sensor_id;sensor_type;location;lat;lon;timestamp;temperature;humidity
44705;DHT22;30431;48.520;9.046;2024-01-07T00:02:21;5.30;99.90
44705;DHT22;30431;48.520;9.046;2024-01-07T00:04:48;5.30;99.90
44705;DHT22;30431;48.520;9.046;2024-01-07T00:07:18;5.30;99.90
44705;DHT22;30431;48.520;9.046;2024-01-07T00:09:48;5.40;99.90
44705;DHT22;30431;48.520;9.046;2024-01-07T00:12:15;5.50;99.90
44705;DHT22;30431;48.520;9.046;2024-01-07T00:14:47;5.50;99.90
44705;DHT22;30431;48.520;9.046;2024-01-07T00:17:14;5.50;99.90
44705;DHT22;30431;48.520;9.046;2024-01-07T00:19:43;5.50;99.90
44705;DHT22;30431;48.520;9.046;2024-01-07T00:22:10;5.60;99.90
44705;DHT22;30431;48.520;9.046;2024-01-07T00:24:37;5.60;99.90
44705;DHT22;30431;48.520;9.046;2024-01-07T00:27:05;5.50;99.90
44705;DHT22;30431;48.520;9.046;2024-01-07T00:29:32;5.40;99.90
44705;DHT22;30431;48.520;9.046;2024-01-07T00:32:02;5.40;99.90
44705;DHT22;30431;48.520;9.046;2024-01-07T00:34:31;5.40;99.90
44705;DHT22;30431;48.520;9.046;2024-01-07T00:36:58;5.50;99.90
44705;DHT22;30431;48.520;9.046;2024-01-07T00:39:27;5.50;99.90
44705;DHT22;30431;48.520;9.046;2024-01-07T00:41:54;5.50;99.90
44705;DHT22;30431;48.520;9.046;2024-01-07T00:44:24;5.40;99.90
44705;DHT22;30431;48.520;9.046;2024-01-07T00:46:51;5.40;99.90
44705;DHT22;30431;48.520;9.046;2024-01-07T00:49:20;5.40;99.90
44705;DHT22;30431;48.520;9.046;2024-01-07T00:51:47;5.40;99.90
44705;DHT22;30431;48.520;9.046;2024-01-07T00:54:14;5.40;99.90
44705;DHT22;30431;48.520;9.046;2024-01-07T00:56:41;5.40;99.90
44705;DHT22;30431;48.520;9.046;2024-01-07T00:59:10;5.40;99.90
44705;DHT22;30431;48.520;9.046;2024-01-07T01:01:37;5.40;99.90
44705;DHT22;30431;48.520;9.046;2024-01-07T01:04:07;5.40;99.90
44705;DHT22;30431;48.520;9.046;2024-01-07T01:06:34;5.40;99.90
44705;DHT22;30431;48.520;9.046;2024-01-07T01:09:04;5.40;99.90
44705;DHT22;30431;48.520;9.046;2024-01-07T01:11:34;5.40;99.90
44705;DHT22;30431;48.520;9.046;2024-01-07T01:14:01;5.40;99.90
44705;DHT22;30431;48.520;9.046;2024-01-07T01:16:28;5.30;99.90
44705;DHT22;30431;48.520;9.046;2024-01-07T01:18:55;5.30;99.90
44705;DHT22;30431;48.520;9.046;2024-01-07T01:21:22;5.30;99.90
44705;DHT22;30431;48.520;9.046;2024-01-07T01:23:49;5.30;99.90
44705;DHT22;30431;48.520;9.046;2024-01-07T01:26:16;5.20;99.90
44705;DHT22;30431;48.520;9.046;2024-01-07T01:28:43;5.20;99.90
44705;DHT22;30431;48.520;9.046;2024-01-07T01:31:13;5.10;99.90
44705;DHT22;30431;48.520;9.046;2024-01-07T01:33:41;5.10;99.90
44705;DHT22;30431;48.520;9.046;2024-01-07T01:36:08;5.10;99.90
44705;DHT22;30431;48.520;9.046;2024-01-07T01:38:35;5.10;99.90
44705;DHT22;30431;48.520;9.046;2024-01-07T01:41:03;5.10;99.90
44705;DHT22;30431;48.520;9.046;2024-01-07T01:43:30;5.20;99.90
44705;DHT22;30431;48.520;9.046;2024-01-07T01:45:59;5.20;99.90
44705;DHT22;30431;48.520;9.046;2024-01-07T01:48:27;5.20;99.90
44705;DHT22;30431;48.520;9.046;2024-01-07T01:50:55;5.30;99.90
44705;DHT22;30431;48.520;9.046;2024-01-07T01:53:26;5.30;99.90
44705;DHT22;30431;48.520;9.046;2024-01-07T01:55:56;5.30;99.90
44705;DHT22;30431;48.520;9.046;2024-01-07T01:58:26;5.30;99.90
44705;DHT22;30431;48.520;9.046;2024-01-07T02:00:55;5.30;99.90
44705;DHT22;30431;48.520;9.046;2024-01-07T02:03:22;5.30;99.90
44705;DHT22;30431;48.520;9.046;2024-01-07T02:05:53;5.40;99.90
44705;DHT22;30431;48.520;9.046;2024-01-07T02:08:20;5.40;99.90
44705;DHT22;30431;48.520;9.046;2024-01-07T02:10:48;5.50;99.90
44705;DHT22;30431;48.520;9.046;2024-01-07T02:13:15;5.50;99.90
44705;DHT22;30431;48.520;9.046;2024-01-07T02:15:43;5.50;99.90
44705;DHT22;30431;48.520;9.046;2024-01-07T02:18:13;5.50;99.90
44705;DHT22;30431;48.520;9.046;2024-01-07T02:20:42;5.60;99.90
44705;DHT22;30431;48.520;9.046;2024-01-07T02:23:09;5.60;99.90
44705;DHT22;30431;48.520;9.046;2024-01-07T02:25:37;5.70;99.90
44705;DHT22;30431;48.520;9.046;2024-01-07T02:28:05;5.70;99.90
44705;DHT22;30431;48.520;9.046;2024-01-07T02:30:32;5.70;99.90
44705;DHT22;30431;48.520;9.046;2024-01-07T02:33:03;5.70;99.90
44705;DHT22;30431;48.520;9.046;2024-01-07T02:35:31;5.70;99.90
44705;DHT22;30431;48.520;9.046;2024-01-07T02:37:58;5.70;99.90
44705;DHT22;30431;48.520;9.046;2024-01-07T02:40:25;5.80;99.90
44705;DHT22;30431;48.520;9.046;2024-01-07T02:42:52;5.80;99.90
44705;DHT22;30431;48.520;9.046;2024-01-07T02:45:23;5.80;99.90
44705;DHT22;30431;48.520;9.046;2024-01-07T02:47:50;5.80;99.90
44705;DHT22;30431;48.520;9.046;2024-01-07T02:50:17;5.80;99.90
44705;DHT22;30431;48.520;9.046;2024-01-07T02:52:44;5.70;99.90
44705;DHT22;30431;48.520;9.046;2024-01-07T02:55:11;5.70;99.90
44705;DHT22;30431;48.520;9.046;2024-01-07T02:57:40;5.70;99.90
44705;DHT22;30431;48.520;9.046;2024-01-07T03:00:08;5.80;99.90
44705;DHT22;30431;48.520;9.046;2024-01-07T03:02:35;5.70;99.90
44705;DHT22;30431;48.520;9.046;2024-01-07T03:05:02;5.70;99.90
44705;DHT22;30431;48.520;9.046;2024-01-07T03:07:29;5.70;99.90
44705;DHT22;30431;48.520;9.046;2024-01-07T03:09:56;5.70;99.90
44705;DHT22;30431;48.520;9.046;2024-01-07T03:12:25;5.70;99.90
44705;DHT22;30431;48.520;9.046;2024-01-07T03:14:52;5.70;99.90
44705;DHT22;30431;48.520;9.046;2024-01-07T03:17:19;5.70;99.90
44705;DHT22;30431;48.520;9.046;2024-01-07T03:19:46;5.70;99.90
44705;DHT22;30431;48.520;9.046;2024-01-07T03:22:13;5.70;99.90
44705;DHT22;30431;48.520;9.046;2024-01-07T03:24:42;5.80;99.90
44705;DHT22;30431;48.520;9.046;2024-01-07T03:27:09;5.80;99.90
44705;DHT22;30431;48.520;9.046;2024-01-07T03:29:36;5.80;99.90
44705;DHT22;30431;48.520;9.046;2024-01-07T03:32:03;5.80;99.90
44705;DHT22;30431;48.520;9.046;2024-01-07T03:34:30;5.80;99.90
44705;DHT22;30431;48.520;9.046;2024-01-07T03:36:59;5.80;99.90
44705;DHT22;30431;48.520;9.046;2024-01-07T03:39:26;5.80;99.90
44705;DHT22;30431;48.520;9.046;2024-01-07T03:41:59;5.80;99.90
44705;DHT22;30431;48.520;9.046;2024-01-07T03:44:28;5.70;99.90
44705;DHT22;30431;48.520;9.046;2024-01-07T03:46:58;5.70;99.90
44705;DHT22;30431;48.520;9.046;2024-01-07T03:49:27;5.70;99.90
44705;DHT22;30431;48.520;9.046;2024-01-07T03:51:54;5.70;99.90
44705;DHT22;30431;48.520;9.046;2024-01-07T03:54:21;5.70;99.90
44705;DHT22;30431;48.520;9.046;2024-01-07T03:56:48;5.70;99.90
44705;DHT22;30431;48.520;9.046;2024-01-07T03:59:17;5.70;99.90
44705;DHT22;30431;48.520;9.046;2024-01-07T04:01:44;5.80;99.90
44705;DHT22;30431;48.520;9.046;2024-01-07T04:04:13;5.80;99.90
44705;DHT22;30431;48.520;9.046;2024-01-07T04:06:42;5.80;99.90
44705;DHT22;30431;48.520;9.046;2024-01-07T04:09:11;5.70;99.90
44705;DHT22;30431;48.520;9.046;2024-01-07T04:11:45;5.70;99.90
44705;DHT22;30431;48.520;9.046;2024-01-07T04:14:14;5.70;99.90
44705;DHT22;30431;48.520;9.046;2024-01-07T04:16:42;5.70;99.90
44705;DHT22;30431;48.520;9.046;2024-01-07T04:19:09;5.70;99.90
44705;DHT22;30431;48.520;9.046;2024-01-07T04:21:36;5.70;99.90
44705;DHT22;30431;48.520;9.046;2024-01-07T04:24:06;5.70;99.90
44705;DHT22;30431;48.520;9.046;2024-01-07T04:26:35;5.80;99.90
44705;DHT22;30431;48.520;9.046;2024-01-07T04:29:02;5.80;99.90
44705;DHT22;30431;48.520;9.046;2024-01-07T04:31:29;5.80;99.90
44705;DHT22;30431;48.520;9.046;2024-01-07T04:33:58;5.80;99.90
44705;DHT22;30431;48.520;9.046;2024-01-07T04:36:26;5.80;99.90
44705;DHT22;30431;48.520;9.046;2024-01-07T04:38:53;5.70;99.90
44705;DHT22;30431;48.520;9.046;2024-01-07T04:41:25;5.70;99.90
44705;DHT22;30431;48.520;9.046;2024-01-07T04:43:55;5.70;99.90
44705;DHT22;30431;48.520;9.046;2024-01-07T04:46:22;5.60;99.90
44705;DHT22;30431;48.520;9.046;2024-01-07T04:48:49;5.60;99.90
44705;DHT22;30431;48.520;9.046;2024-01-07T04:51:16;5.60;99.90
44705;DHT22;30431;48.520;9.046;2024-01-07T04:53:43;5.50;99.90
44705;DHT22;30431;48.520;9.046;2024-01-07T04:56:10;5.50;99.90
44705;DHT22;30431;48.520;9.046;2024-01-07T04:58:37;5.50;99.90
44705;DHT22;30431;48.520;9.046;2024-01-07T05:01:06;5.40;99.90
44705;DHT22;30431;48.520;9.046;2024-01-07T05:03:33;5.60;99.90
44705;DHT22;30431;48.520;9.046;2024-01-07T05:06:12;5.60;99.90
44705;DHT22;30431;48.520;9.046;2024-01-07T05:08:40;5.50;99.90
44705;DHT22;30431;48.520;9.046;2024-01-07T05:11:08;5.50;99.90
44705;DHT22;30431;48.520;9.046;2024-01-07T05:13:35;5.50;99.90
44705;DHT22;30431;48.520;9.046;2024-01-07T05:16:02;5.60;99.90
44705;DHT22;30431;48.520;9.046;2024-01-07T05:18:29;5.60;99.90
44705;DHT22;30431;48.520;9.046;2024-01-07T05:20:59;5.70;99.90
44705;DHT22;30431;48.520;9.046;2024-01-07T05:23:26;5.70;99.90
44705;DHT22;30431;48.520;9.046;2024-01-07T05:25:55;5.70;99.90
44705;DHT22;30431;48.520;9.046;2024-01-07T05:28:24;5.70;99.90
44705;DHT22;30431;48.520;9.046;2024-01-07T05:30:51;5.70;99.90
44705;DHT22;30431;48.520;9.046;2024-01-07T05:33:21;5.60;99.90
44705;DHT22;30431;48.520;9.046;2024-01-07T05:35:47;5.60;99.90
44705;DHT22;30431;48.520;9.046;2024-01-07T05:38:14;5.60;99.90
44705;DHT22;30431;48.520;9.046;2024-01-07T05:40:41;5.50;99.90
44705;DHT22;30431;48.520;9.046;2024-01-07T05:43:08;5.60;99.90
44705;DHT22;30431;48.520;9.046;2024-01-07T05:45:35;5.50;99.90
44705;DHT22;30431;48.520;9.046;2024-01-07T05:48:02;5.50;99.90
44705;DHT22;30431;48.520;9.046;2024-01-07T05:50:30;5.50;99.90
44705;DHT22;30431;48.520;9.046;2024-01-07T05:52:57;5.50;99.90
44705;DHT22;30431;48.520;9.046;2024-01-07T05:55:24;5.50;99.90
44705;DHT22;30431;48.520;9.046;2024-01-07T05:57:51;5.50;99.90
44705;DHT22;30431;48.520;9.046;2024-01-07T06:00:20;5.50;99.90
44705;DHT22;30431;48.520;9.046;2024-01-07T06:02:49;5.60;99.90
44705;DHT22;30431;48.520;9.046;2024-01-07T06:05:16;5.50;99.90
44705;DHT22;30431;48.520;9.046;2024-01-07T06:07:43;5.50;99.90
44705;DHT22;30431;48.520;9.046;2024-01-07T06:10:10;5.50;99.90
44705;DHT22;30431;48.520;9.046;2024-01-07T06:12:40;5.50;99.90
44705;DHT22;30431;48.520;9.046;2024-01-07T06:15:07;5.60;99.90
44705;DHT22;30431;48.520;9.046;2024-01-07T06:17:34;5.60;99.90
44705;DHT22;30431;48.520;9.046;2024-01-07T06:20:01;5.70;99.90
44705;DHT22;30431;48.520;9.046;2024-01-07T06:22:29;5.70;99.90
44705;DHT22;30431;48.520;9.046;2024-01-07T06:24:56;5.70;99.90
44705;DHT22;30431;48.520;9.046;2024-01-07T06:27:23;5.70;99.90
44705;DHT22;30431;48.520;9.046;2024-01-07T06:29:50;5.70;99.90
44705;DHT22;30431;48.520;9.046;2024-01-07T06:32:17;5.70;99.90
44705;DHT22;30431;48.520;9.046;2024-01-07T06:34:44;5.70;99.90
44705;DHT22;30431;48.520;9.046;2024-01-07T06:37:11;5.70;99.90
44705;DHT22;30431;48.520;9.046;2024-01-07T06:39:38;5.70;99.90
44705;DHT22;30431;48.520;9.046;2024-01-07T06:42:05;5.70;99.90
44705;DHT22;30431;48.520;9.046;2024-01-07T06:44:34;5.60;99.90
44705;DHT22;30431;48.520;9.046;2024-01-07T06:47:01;5.60;99.90
44705;DHT22;30431;48.520;9.046;2024-01-07T06:49:29;5.60;99.90
44705;DHT22;30431;48.520;9.046;2024-01-07T06:51:56;5.50;99.90
44705;DHT22;30431;48.520;9.046;2024-01-07T06:54:24;5.50;99.90
44705;DHT22;30431;48.520;9.046;2024-01-07T06:56:51;5.50;99.90
44705;DHT22;30431;48.520;9.046;2024-01-07T06:59:20;5.50;99.90
44705;DHT22;30431;48.520;9.046;2024-01-07T07:01:50;5.50;99.90
44705;DHT22;30431;48.520;9.046;2024-01-07T07:04:19;5.50;99.90
44705;DHT22;30431;48.520;9.046;2024-01-07T07:06:47;5.40;99.90
44705;DHT22;30431;48.520;9.046;2024-01-07T07:09:14;5.50;99.90
44705;DHT22;30431;48.520;9.046;2024-01-07T07:11:43;5.50;99.90
44705;DHT22;30431;48.520;9.046;2024-01-07T07:14:15;5.50;99.90
44705;DHT22;30431;48.520;9.046;2024-01-07T07:16:44;5.40;99.90
44705;DHT22;30431;48.520;9.046;2024-01-07T07:19:13;5.40;99.90
44705;DHT22;30431;48.520;9.046;2024-01-07T07:21:43;5.40;99.90
44705;DHT22;30431;48.520;9.046;2024-01-07T07:24:10;5.40;99.90
44705;DHT22;30431;48.520;9.046;2024-01-07T07:26:38;5.30;99.90
44705;DHT22;30431;48.520;9.046;2024-01-07T07:29:12;5.20;99.90
44705;DHT22;30431;48.520;9.046;2024-01-07T07:31:42;5.30;99.90
44705;DHT22;30431;48.520;9.046;2024-01-07T07:34:09;5.30;99.90
44705;DHT22;30431;48.520;9.046;2024-01-07T07:36:39;5.30;99.90
44705;DHT22;30431;48.520;9.046;2024-01-07T07:39:08;5.30;99.90
44705;DHT22;30431;48.520;9.046;2024-01-07T07:41:36;5.30;99.90
44705;DHT22;30431;48.520;9.046;2024-01-07T07:44:07;5.20;99.90
44705;DHT22;30431;48.520;9.046;2024-01-07T07:46:34;5.30;99.90
44705;DHT22;30431;48.520;9.046;2024-01-07T07:49:03;5.30;99.90
44705;DHT22;30431;48.520;9.046;2024-01-07T07:51:30;5.30;99.90
44705;DHT22;30431;48.520;9.046;2024-01-07T07:53:57;5.30;99.90
44705;DHT22;30431;48.520;9.046;2024-01-07T07:56:29;5.30;99.90
44705;DHT22;30431;48.520;9.046;2024-01-07T07:58:58;5.20;99.90
44705;DHT22;30431;48.520;9.046;2024-01-07T08:01:25;5.30;99.90
44705;DHT22;30431;48.520;9.046;2024-01-07T08:03:52;5.30;99.90
44705;DHT22;30431;48.520;9.046;2024-01-07T08:06:22;5.40;99.90
44705;DHT22;30431;48.520;9.046;2024-01-07T08:08:49;5.40;99.90
44705;DHT22;30431;48.520;9.046;2024-01-07T08:11:18;5.40;99.90
44705;DHT22;30431;48.520;9.046;2024-01-07T08:13:45;5.50;99.90
44705;DHT22;30431;48.520;9.046;2024-01-07T08:16:14;5.50;99.90
44705;DHT22;30431;48.520;9.046;2024-01-07T08:18:41;5.50;99.90
44705;DHT22;30431;48.520;9.046;2024-01-07T08:21:11;5.50;99.90
44705;DHT22;30431;48.520;9.046;2024-01-07T08:23:38;5.50;99.90
44705;DHT22;30431;48.520;9.046;2024-01-07T08:26:08;5.50;99.90
44705;DHT22;30431;48.520;9.046;2024-01-07T08:28:35;5.40;99.90
44705;DHT22;30431;48.520;9.046;2024-01-07T08:31:06;5.40;99.90
44705;DHT22;30431;48.520;9.046;2024-01-07T08:33:36;5.40;99.90
44705;DHT22;30431;48.520;9.046;2024-01-07T08:36:03;5.40;99.90
44705;DHT22;30431;48.520;9.046;2024-01-07T08:38:31;5.40;99.90
44705;DHT22;30431;48.520;9.046;2024-01-07T08:40:58;5.50;99.90
44705;DHT22;30431;48.520;9.046;2024-01-07T08:43:25;5.50;99.90
44705;DHT22;30431;48.520;9.046;2024-01-07T08:45:52;5.50;99.90
44705;DHT22;30431;48.520;9.046;2024-01-07T08:48:21;5.50;99.90
44705;DHT22;30431;48.520;9.046;2024-01-07T08:50:48;5.60;99.90
44705;DHT22;30431;48.520;9.046;2024-01-07T08:53:17;5.50;99.90
44705;DHT22;30431;48.520;9.046;2024-01-07T08:55:47;5.50;99.90
44705;DHT22;30431;48.520;9.046;2024-01-07T08:58:15;5.60;99.90
44705;DHT22;30431;48.520;9.046;2024-01-07T09:00:48;5.50;99.90
44705;DHT22;30431;48.520;9.046;2024-01-07T09:03:15;5.40;99.90
44705;DHT22;30431;48.520;9.046;2024-01-07T09:05:42;5.40;99.90
44705;DHT22;30431;48.520;9.046;2024-01-07T09:08:09;5.50;99.90
44705;DHT22;30431;48.520;9.046;2024-01-07T09:10:38;6.30;99.90
44705;DHT22;30431;48.520;9.046;2024-01-07T09:13:05;6.10;99.90
44705;DHT22;30431;48.520;9.046;2024-01-07T09:15:32;5.90;99.90
44705;DHT22;30431;48.520;9.046;2024-01-07T09:17:59;5.70;99.90
44705;DHT22;30431;48.520;9.046;2024-01-07T09:20:27;5.60;99.90
44705;DHT22;30431;48.520;9.046;2024-01-07T09:22:56;5.60;99.90
44705;DHT22;30431;48.520;9.046;2024-01-07T09:25:26;5.40;99.90
44705;DHT22;30431;48.520;9.046;2024-01-07T09:27:53;5.30;99.90
44705;DHT22;30431;48.520;9.046;2024-01-07T09:30:20;5.20;99.90
44705;DHT22;30431;48.520;9.046;2024-01-07T09:32:47;5.30;99.90
44705;DHT22;30431;48.520;9.046;2024-01-07T09:35:14;5.30;99.90
44705;DHT22;30431;48.520;9.046;2024-01-07T09:37:41;5.30;99.90
44705;DHT22;30431;48.520;9.046;2024-01-07T09:40:11;5.40;99.90
44705;DHT22;30431;48.520;9.046;2024-01-07T09:42:38;5.40;99.90
44705;DHT22;30431;48.520;9.046;2024-01-07T09:45:05;5.30;99.90
44705;DHT22;30431;48.520;9.046;2024-01-07T09:47:32;5.20;99.90
44705;DHT22;30431;48.520;9.046;2024-01-07T09:50:00;5.30;99.90
44705;DHT22;30431;48.520;9.046;2024-01-07T09:52:27;5.30;99.90
44705;DHT22;30431;48.520;9.046;2024-01-07T09:55:00;5.30;99.90
44705;DHT22;30431;48.520;9.046;2024-01-07T09:57:33;5.20;99.90
44705;DHT22;30431;48.520;9.046;2024-01-07T10:00:01;5.10;99.90
44705;DHT22;30431;48.520;9.046;2024-01-07T10:02:37;5.10;99.90
44705;DHT22;30431;48.520;9.046;2024-01-07T10:05:11;5.10;99.90
44705;DHT22;30431;48.520;9.046;2024-01-07T10:07:38;5.00;99.90
44705;DHT22;30431;48.520;9.046;2024-01-07T10:10:17;5.00;99.90
44705;DHT22;30431;48.520;9.046;2024-01-07T10:12:45;5.00;99.90
44705;DHT22;30431;48.520;9.046;2024-01-07T10:15:18;5.10;99.90
44705;DHT22;30431;48.520;9.046;2024-01-07T10:17:45;5.10;99.90
44705;DHT22;30431;48.520;9.046;2024-01-07T10:20:15;5.10;99.90
44705;DHT22;30431;48.520;9.046;2024-01-07T10:22:49;5.10;99.90
44705;DHT22;30431;48.520;9.046;2024-01-07T10:25:16;5.10;99.90
44705;DHT22;30431;48.520;9.046;2024-01-07T10:27:46;5.10;99.90
44705;DHT22;30431;48.520;9.046;2024-01-07T10:30:15;5.10;99.90
44705;DHT22;30431;48.520;9.046;2024-01-07T10:32:46;5.10;99.90
44705;DHT22;30431;48.520;9.046;2024-01-07T10:35:17;5.20;99.90
44705;DHT22;30431;48.520;9.046;2024-01-07T10:37:45;5.20;99.90
44705;DHT22;30431;48.520;9.046;2024-01-07T10:40:12;5.20;99.90
44705;DHT22;30431;48.520;9.046;2024-01-07T10:42:43;5.20;99.90
44705;DHT22;30431;48.520;9.046;2024-01-07T10:45:11;5.20;99.80
44705;DHT22;30431;48.520;9.046;2024-01-07T10:47:40;5.10;99.90
44705;DHT22;30431;48.520;9.046;2024-01-07T10:50:09;5.10;99.60
44705;DHT22;30431;48.520;9.046;2024-01-07T10:52:39;5.10;99.50
44705;DHT22;30431;48.520;9.046;2024-01-07T10:55:09;5.00;99.40
44705;DHT22;30431;48.520;9.046;2024-01-07T10:57:48;5.00;99.50
44705;DHT22;30431;48.520;9.046;2024-01-07T11:00:20;4.80;99.20
44705;DHT22;30431;48.520;9.046;2024-01-07T11:03:14;4.80;99.10
44705;DHT22;30431;48.520;9.046;2024-01-07T11:05:52;4.90;99.00
44705;DHT22;30431;48.520;9.046;2024-01-07T11:11:16;5.00;98.80
44705;DHT22;30431;48.520;9.046;2024-01-07T11:13:44;5.00;98.50
44705;DHT22;30431;48.520;9.046;2024-01-07T11:16:11;4.90;98.40
44705;DHT22;30431;48.520;9.046;2024-01-07T11:18:50;4.90;98.50
44705;DHT22;30431;48.520;9.046;2024-01-07T11:21:21;4.80;98.10
44705;DHT22;30431;48.520;9.046;2024-01-07T11:23:48;4.70;97.80
44705;DHT22;30431;48.520;9.046;2024-01-07T11:26:15;4.60;97.70
44705;DHT22;30431;48.520;9.046;2024-01-07T11:31:16;4.60;97.90
44705;DHT22;30431;48.520;9.046;2024-01-07T11:33:48;4.50;98.00
44705;DHT22;30431;48.520;9.046;2024-01-07T11:36:19;4.40;98.10
44705;DHT22;30431;48.520;9.046;2024-01-07T11:38:50;4.40;98.20
44705;DHT22;30431;48.520;9.046;2024-01-07T11:41:21;4.40;98.20
44705;DHT22;30431;48.520;9.046;2024-01-07T11:43:57;4.40;98.00
44705;DHT22;30431;48.520;9.046;2024-01-07T11:46:32;4.30;97.60
44705;DHT22;30431;48.520;9.046;2024-01-07T11:49:02;4.20;97.90
44705;DHT22;30431;48.520;9.046;2024-01-07T11:51:31;4.00;98.20
44705;DHT22;30431;48.520;9.046;2024-01-07T11:54:01;4.00;98.30
44705;DHT22;30431;48.520;9.046;2024-01-07T11:56:28;4.10;98.50
44705;DHT22;30431;48.520;9.046;2024-01-07T11:58:56;4.10;98.60
44705;DHT22;30431;48.520;9.046;2024-01-07T12:01:24;4.20;98.30
44705;DHT22;30431;48.520;9.046;2024-01-07T12:03:53;4.10;98.60
44705;DHT22;30431;48.520;9.046;2024-01-07T12:06:20;4.10;98.60
44705;DHT22;30431;48.520;9.046;2024-01-07T12:08:52;4.20;98.70
44705;DHT22;30431;48.520;9.046;2024-01-07T12:11:21;4.20;98.40
44705;DHT22;30431;48.520;9.046;2024-01-07T12:13:49;4.30;98.20
44705;DHT22;30431;48.520;9.046;2024-01-07T12:16:17;4.30;97.50
44705;DHT22;30431;48.520;9.046;2024-01-07T12:18:44;4.20;97.40
44705;DHT22;30431;48.520;9.046;2024-01-07T12:21:21;4.20;97.80
44705;DHT22;30431;48.520;9.046;2024-01-07T12:23:50;4.20;97.60
44705;DHT22;30431;48.520;9.046;2024-01-07T12:26:17;4.10;97.40
44705;DHT22;30431;48.520;9.046;2024-01-07T12:28:54;4.20;97.50
44705;DHT22;30431;48.520;9.046;2024-01-07T12:31:26;4.20;97.60
44705;DHT22;30431;48.520;9.046;2024-01-07T12:33:54;4.20;96.80
44705;DHT22;30431;48.520;9.046;2024-01-07T12:36:29;4.30;96.70
44705;DHT22;30431;48.520;9.046;2024-01-07T12:38:56;4.20;97.00
44705;DHT22;30431;48.520;9.046;2024-01-07T12:41:28;4.20;96.50
44705;DHT22;30431;48.520;9.046;2024-01-07T12:43:58;4.20;96.90
44705;DHT22;30431;48.520;9.046;2024-01-07T12:46:25;4.20;96.80
44705;DHT22;30431;48.520;9.046;2024-01-07T12:48:52;4.20;96.50
44705;DHT22;30431;48.520;9.046;2024-01-07T12:51:19;4.20;96.80
44705;DHT22;30431;48.520;9.046;2024-01-07T12:53:50;4.20;96.20
44705;DHT22;30431;48.520;9.046;2024-01-07T12:56:17;4.10;95.80
44705;DHT22;30431;48.520;9.046;2024-01-07T12:58:46;3.90;96.20
44705;DHT22;30431;48.520;9.046;2024-01-07T13:01:16;3.90;96.60
44705;DHT22;30431;48.520;9.046;2024-01-07T13:03:45;3.90;96.70
44705;DHT22;30431;48.520;9.046;2024-01-07T13:06:12;3.80;96.60
44705;DHT22;30431;48.520;9.046;2024-01-07T13:08:39;3.70;96.80
44705;DHT22;30431;48.520;9.046;2024-01-07T13:11:07;3.70;96.90
44705;DHT22;30431;48.520;9.046;2024-01-07T13:13:43;3.80;97.10
44705;DHT22;30431;48.520;9.046;2024-01-07T13:16:10;3.70;96.90
44705;DHT22;30431;48.520;9.046;2024-01-07T13:18:40;3.70;97.30
44705;DHT22;30431;48.520;9.046;2024-01-07T13:21:10;3.70;97.50
44705;DHT22;30431;48.520;9.046;2024-01-07T13:23:40;3.70;97.10
44705;DHT22;30431;48.520;9.046;2024-01-07T13:26:18;3.80;97.00
44705;DHT22;30431;48.520;9.046;2024-01-07T13:28:45;3.70;97.10
44705;DHT22;30431;48.520;9.046;2024-01-07T13:31:12;3.70;97.30
44705;DHT22;30431;48.520;9.046;2024-01-07T13:33:40;3.70;97.10
44705;DHT22;30431;48.520;9.046;2024-01-07T13:36:08;3.70;97.30
44705;DHT22;30431;48.520;9.046;2024-01-07T13:38:40;3.60;97.00
44705;DHT22;30431;48.520;9.046;2024-01-07T13:41:10;3.60;97.30
44705;DHT22;30431;48.520;9.046;2024-01-07T13:43:37;3.60;97.60
44705;DHT22;30431;48.520;9.046;2024-01-07T13:46:08;3.60;97.30
44705;DHT22;30431;48.520;9.046;2024-01-07T13:48:35;3.60;97.00
44705;DHT22;30431;48.520;9.046;2024-01-07T13:51:06;3.60;97.30
44705;DHT22;30431;48.520;9.046;2024-01-07T13:53:33;3.60;97.20
44705;DHT22;30431;48.520;9.046;2024-01-07T13:56:01;3.50;97.40
44705;DHT22;30431;48.520;9.046;2024-01-07T13:58:33;3.40;97.10
44705;DHT22;30431;48.520;9.046;2024-01-07T14:01:00;3.30;97.70
44705;DHT22;30431;48.520;9.046;2024-01-07T14:03:27;3.30;97.80
44705;DHT22;30431;48.520;9.046;2024-01-07T14:05:54;3.30;97.60
44705;DHT22;30431;48.520;9.046;2024-01-07T14:08:21;3.30;97.70
44705;DHT22;30431;48.520;9.046;2024-01-07T14:10:48;3.40;97.90
44705;DHT22;30431;48.520;9.046;2024-01-07T14:13:17;3.40;97.90
44705;DHT22;30431;48.520;9.046;2024-01-07T14:15:47;3.40;97.70
44705;DHT22;30431;48.520;9.046;2024-01-07T14:18:15;3.40;98.00
44705;DHT22;30431;48.520;9.046;2024-01-07T14:20:43;3.30;97.50
44705;DHT22;30431;48.520;9.046;2024-01-07T14:23:10;3.30;97.90
44705;DHT22;30431;48.520;9.046;2024-01-07T14:25:37;3.30;97.90
44705;DHT22;30431;48.520;9.046;2024-01-07T14:28:07;3.30;98.10
44705;DHT22;30431;48.520;9.046;2024-01-07T14:30:34;3.30;98.10
44705;DHT22;30431;48.520;9.046;2024-01-07T14:33:06;3.30;98.20
44705;DHT22;30431;48.520;9.046;2024-01-07T14:35:36;3.30;98.00
44705;DHT22;30431;48.520;9.046;2024-01-07T14:38:05;3.30;97.90
44705;DHT22;30431;48.520;9.046;2024-01-07T14:40:37;3.30;98.30
44705;DHT22;30431;48.520;9.046;2024-01-07T14:43:06;3.30;98.40
44705;DHT22;30431;48.520;9.046;2024-01-07T14:45:34;3.10;98.00
44705;DHT22;30431;48.520;9.046;2024-01-07T14:48:04;3.10;98.20
44705;DHT22;30431;48.520;9.046;2024-01-07T14:50:31;3.10;98.30
44705;DHT22;30431;48.520;9.046;2024-01-07T14:53:07;3.10;98.90
44705;DHT22;30431;48.520;9.046;2024-01-07T14:55:34;3.10;99.20
44705;DHT22;30431;48.520;9.046;2024-01-07T14:58:01;3.10;99.50
44705;DHT22;30431;48.520;9.046;2024-01-07T15:00:29;3.10;99.10
44705;DHT22;30431;48.520;9.046;2024-01-07T15:02:56;3.00;98.60
44705;DHT22;30431;48.520;9.046;2024-01-07T15:05:25;2.90;98.70
44705;DHT22;30431;48.520;9.046;2024-01-07T15:07:52;2.60;98.90
44705;DHT22;30431;48.520;9.046;2024-01-07T15:10:21;2.60;99.70
44705;DHT22;30431;48.520;9.046;2024-01-07T15:12:48;2.60;99.80
44705;DHT22;30431;48.520;9.046;2024-01-07T15:15:28;2.60;99.90
44705;DHT22;30431;48.520;9.046;2024-01-07T15:17:59;2.50;99.60
44705;DHT22;30431;48.520;9.046;2024-01-07T15:20:26;2.40;99.90
44705;DHT22;30431;48.520;9.046;2024-01-07T15:22:53;2.30;99.90
44705;DHT22;30431;48.520;9.046;2024-01-07T15:25:24;2.40;99.90
44705;DHT22;30431;48.520;9.046;2024-01-07T15:27:51;2.30;99.90
44705;DHT22;30431;48.520;9.046;2024-01-07T15:30:21;2.30;99.90
44705;DHT22;30431;48.520;9.046;2024-01-07T15:32:53;2.20;99.90
44705;DHT22;30431;48.520;9.046;2024-01-07T15:35:20;2.20;99.90
44705;DHT22;30431;48.520;9.046;2024-01-07T15:37:49;2.20;99.90
44705;DHT22;30431;48.520;9.046;2024-01-07T15:40:16;2.10;99.90
44705;DHT22;30431;48.520;9.046;2024-01-07T15:42:43;2.10;99.90
44705;DHT22;30431;48.520;9.046;2024-01-07T15:45:13;2.10;99.90
44705;DHT22;30431;48.520;9.046;2024-01-07T15:47:42;2.20;99.90
44705;DHT22;30431;48.520;9.046;2024-01-07T15:50:12;2.20;99.90
44705;DHT22;30431;48.520;9.046;2024-01-07T15:52:40;2.20;99.90
44705;DHT22;30431;48.520;9.046;2024-01-07T15:55:15;2.30;99.90
44705;DHT22;30431;48.520;9.046;2024-01-07T15:57:43;2.20;99.70
44705;DHT22;30431;48.520;9.046;2024-01-07T16:00:14;2.10;99.90